sensor_id;sensor_type;location;lat;lon;timestamp;P1;durP1;ratioP1;P2;durP2;ratioP2
52744;SDS011;38637;49.984;20.426;2022-12-10T00:04:50;31.00;;;23.00;;
52744;SDS011;38637;49.984;20.426;2022-12-10T00:07:16;39.70;;;28.50;;
52744;SDS011;38637;49.984;20.426;2022-12-10T00:09:41;23.40;;;17.43;;
52744;SDS011;38637;49.984;20.426;2022-12-10T00:12:06;25.73;;;17.43;;
52744;SDS011;38637;49.984;20.426;2022-12-10T00:14:32;25.77;;;19.30;;
52744;SDS011;38637;49.984;20.426;2022-12-10T00:16:57;23.90;;;18.13;;
52744;SDS011;38637;49.984;20.426;2022-12-10T00:19:22;26.77;;;18.63;;
52744;SDS011;38637;49.984;20.426;2022-12-10T00:21:47;23.57;;;16.53;;
52744;SDS011;38637;49.984;20.426;2022-12-10T00:24:13;22.43;;;17.60;;
52744;SDS011;38637;49.984;20.426;2022-12-10T00:26:38;23.53;;;18.73;;
52744;SDS011;38637;49.984;20.426;2022-12-10T00:29:05;27.55;;;19.83;;
52744;SDS011;38637;49.984;20.426;2022-12-10T00:31:32;21.85;;;17.58;;
52744;SDS011;38637;49.984;20.426;2022-12-10T00:34:00;22.42;;;16.45;;
52744;SDS011;38637;49.984;20.426;2022-12-10T00:36:35;23.10;;;18.20;;
52744;SDS011;38637;49.984;20.426;2022-12-10T00:39:03;24.30;;;17.40;;
52744;SDS011;38637;49.984;20.426;2022-12-10T00:41:29;24.23;;;17.92;;
52744;SDS011;38637;49.984;20.426;2022-12-10T00:43:55;19.23;;;14.93;;
52744;SDS011;38637;49.984;20.426;2022-12-10T00:46:20;20.07;;;15.70;;
52744;SDS011;38637;49.984;20.426;2022-12-10T00:48:46;23.23;;;15.33;;
52744;SDS011;38637;49.984;20.426;2022-12-10T00:51:16;20.30;;;15.93;;
52744;SDS011;38637;49.984;20.426;2022-12-10T00:53:43;21.30;;;16.02;;
52744;SDS011;38637;49.984;20.426;2022-12-10T00:56:10;20.60;;;15.10;;
52744;SDS011;38637;49.984;20.426;2022-12-10T00:58:37;22.55;;;14.75;;
52744;SDS011;38637;49.984;20.426;2022-12-10T01:01:13;16.80;;;13.43;;
52744;SDS011;38637;49.984;20.426;2022-12-10T01:03:49;15.80;;;12.73;;
52744;SDS011;38637;49.984;20.426;2022-12-10T01:06:23;15.27;;;13.18;;
52744;SDS011;38637;49.984;20.426;2022-12-10T01:08:51;16.50;;;12.60;;
52744;SDS011;38637;49.984;20.426;2022-12-10T01:11:19;15.63;;;13.35;;
52744;SDS011;38637;49.984;20.426;2022-12-10T01:13:47;15.35;;;11.95;;
52744;SDS011;38637;49.984;20.426;2022-12-10T01:16:13;15.98;;;12.45;;
52744;SDS011;38637;49.984;20.426;2022-12-10T01:18:41;15.18;;;12.63;;
52744;SDS011;38637;49.984;20.426;2022-12-10T01:21:07;15.50;;;11.90;;
52744;SDS011;38637;49.984;20.426;2022-12-10T01:23:36;12.43;;;10.93;;
52744;SDS011;38637;49.984;20.426;2022-12-10T01:26:03;15.38;;;13.70;;
52744;SDS011;38637;49.984;20.426;2022-12-10T01:28:31;15.80;;;12.30;;
52744;SDS011;38637;49.984;20.426;2022-12-10T01:31:02;13.88;;;11.35;;
52744;SDS011;38637;49.984;20.426;2022-12-10T01:33:29;13.75;;;11.45;;
52744;SDS011;38637;49.984;20.426;2022-12-10T01:35:55;12.85;;;10.68;;
52744;SDS011;38637;49.984;20.426;2022-12-10T01:38:20;13.40;;;11.67;;
52744;SDS011;38637;49.984;20.426;2022-12-10T01:40:45;15.57;;;12.20;;
52744;SDS011;38637;49.984;20.426;2022-12-10T01:43:14;14.50;;;12.20;;
52744;SDS011;38637;49.984;20.426;2022-12-10T01:45:39;12.90;;;11.43;;
52744;SDS011;38637;49.984;20.426;2022-12-10T01:48:05;16.37;;;13.43;;
52744;SDS011;38637;49.984;20.426;2022-12-10T01:50:30;17.50;;;13.03;;
52744;SDS011;38637;49.984;20.426;2022-12-10T01:52:56;18.77;;;14.60;;
52744;SDS011;38637;49.984;20.426;2022-12-10T01:58:20;15.45;;;13.45;;
52744;SDS011;38637;49.984;20.426;2022-12-10T02:00:48;14.57;;;12.73;;
52744;SDS011;38637;49.984;20.426;2022-12-10T02:03:27;14.48;;;12.90;;
52744;SDS011;38637;49.984;20.426;2022-12-10T02:06:06;17.13;;;12.80;;
52744;SDS011;38637;49.984;20.426;2022-12-10T02:09:00;20.98;;;14.98;;
52744;SDS011;38637;49.984;20.426;2022-12-10T02:12:14;19.00;;;14.10;;
52744;SDS011;38637;49.984;20.426;2022-12-10T02:17:31;13.80;;;11.82;;
52744;SDS011;38637;49.984;20.426;2022-12-10T02:20:09;14.48;;;11.25;;
52744;SDS011;38637;49.984;20.426;2022-12-10T02:22:55;13.70;;;11.55;;
52744;SDS011;38637;49.984;20.426;2022-12-10T02:31:20;14.52;;;12.55;;
52744;SDS011;38637;49.984;20.426;2022-12-10T02:33:53;15.35;;;11.45;;
52744;SDS011;38637;49.984;20.426;2022-12-10T02:36:22;14.75;;;12.13;;
52744;SDS011;38637;49.984;20.426;2022-12-10T02:38:51;12.70;;;10.50;;
52744;SDS011;38637;49.984;20.426;2022-12-10T02:41:23;13.90;;;10.90;;
52744;SDS011;38637;49.984;20.426;2022-12-10T02:43:53;14.13;;;11.68;;
52744;SDS011;38637;49.984;20.426;2022-12-10T02:46:22;15.50;;;12.27;;
52744;SDS011;38637;49.984;20.426;2022-12-10T02:48:52;14.63;;;11.95;;
52744;SDS011;38637;49.984;20.426;2022-12-10T02:51:18;16.23;;;14.00;;
52744;SDS011;38637;49.984;20.426;2022-12-10T02:53:43;16.30;;;13.30;;
52744;SDS011;38637;49.984;20.426;2022-12-10T02:56:24;17.15;;;13.57;;
52744;SDS011;38637;49.984;20.426;2022-12-10T02:58:59;15.00;;;12.55;;
52744;SDS011;38637;49.984;20.426;2022-12-10T03:02:17;15.32;;;12.18;;
52744;SDS011;38637;49.984;20.426;2022-12-10T03:04:53;17.02;;;12.35;;
52744;SDS011;38637;49.984;20.426;2022-12-10T03:07:19;15.95;;;13.52;;
52744;SDS011;38637;49.984;20.426;2022-12-10T03:10:02;17.92;;;13.95;;
52744;SDS011;38637;49.984;20.426;2022-12-10T03:12:37;17.60;;;13.50;;
52744;SDS011;38637;49.984;20.426;2022-12-10T03:15:08;18.77;;;13.55;;
52744;SDS011;38637;49.984;20.426;2022-12-10T03:17:35;17.00;;;14.35;;
52744;SDS011;38637;49.984;20.426;2022-12-10T03:20:02;18.85;;;14.50;;
52744;SDS011;38637;49.984;20.426;2022-12-10T03:22:31;18.98;;;14.60;;
52744;SDS011;38637;49.984;20.426;2022-12-10T03:24:57;18.45;;;14.73;;
52744;SDS011;38637;49.984;20.426;2022-12-10T03:27:23;19.15;;;14.90;;
52744;SDS011;38637;49.984;20.426;2022-12-10T03:29:50;21.83;;;16.08;;
52744;SDS011;38637;49.984;20.426;2022-12-10T03:32:18;18.00;;;15.10;;
52744;SDS011;38637;49.984;20.426;2022-12-10T03:34:49;20.02;;;15.82;;
52744;SDS011;38637;49.984;20.426;2022-12-10T03:37:16;19.98;;;15.18;;
52744;SDS011;38637;49.984;20.426;2022-12-10T03:39:42;20.67;;;15.00;;
52744;SDS011;38637;49.984;20.426;2022-12-10T03:42:08;18.90;;;15.27;;
52744;SDS011;38637;49.984;20.426;2022-12-10T03:44:35;20.30;;;15.90;;
52744;SDS011;38637;49.984;20.426;2022-12-10T03:47:03;21.25;;;15.32;;
52744;SDS011;38637;49.984;20.426;2022-12-10T03:49:30;18.50;;;14.52;;
52744;SDS011;38637;49.984;20.426;2022-12-10T03:51:55;18.70;;;15.00;;
52744;SDS011;38637;49.984;20.426;2022-12-10T03:54:20;22.30;;;16.23;;
52744;SDS011;38637;49.984;20.426;2022-12-10T03:56:46;21.63;;;16.20;;
52744;SDS011;38637;49.984;20.426;2022-12-10T03:59:11;21.13;;;16.60;;
52744;SDS011;38637;49.984;20.426;2022-12-10T04:01:37;20.13;;;15.50;;
52744;SDS011;38637;49.984;20.426;2022-12-10T04:04:03;19.07;;;15.73;;
52744;SDS011;38637;49.984;20.426;2022-12-10T04:06:29;19.75;;;16.08;;
52744;SDS011;38637;49.984;20.426;2022-12-10T04:08:55;22.33;;;16.30;;
52744;SDS011;38637;49.984;20.426;2022-12-10T04:11:20;18.80;;;15.50;;
52744;SDS011;38637;49.984;20.426;2022-12-10T04:13:45;19.90;;;15.93;;
52744;SDS011;38637;49.984;20.426;2022-12-10T04:16:30;18.83;;;15.05;;
52744;SDS011;38637;49.984;20.426;2022-12-10T04:19:00;19.45;;;14.23;;
52744;SDS011;38637;49.984;20.426;2022-12-10T04:21:28;19.75;;;14.60;;
52744;SDS011;38637;49.984;20.426;2022-12-10T04:24:13;23.55;;;16.30;;
52744;SDS011;38637;49.984;20.426;2022-12-10T04:26:59;19.45;;;14.98;;
52744;SDS011;38637;49.984;20.426;2022-12-10T04:29:29;20.77;;;16.52;;
52744;SDS011;38637;49.984;20.426;2022-12-10T04:31:55;18.77;;;15.88;;
52744;SDS011;38637;49.984;20.426;2022-12-10T04:34:21;22.98;;;15.40;;
52744;SDS011;38637;49.984;20.426;2022-12-10T04:36:47;19.45;;;16.33;;
52744;SDS011;38637;49.984;20.426;2022-12-10T04:39:13;21.73;;;16.63;;
52744;SDS011;38637;49.984;20.426;2022-12-10T04:41:41;20.60;;;17.80;;
52744;SDS011;38637;49.984;20.426;2022-12-10T04:46:32;18.58;;;15.45;;
52744;SDS011;38637;49.984;20.426;2022-12-10T04:48:58;17.77;;;14.97;;
52744;SDS011;38637;49.984;20.426;2022-12-10T04:51:23;16.97;;;15.00;;
52744;SDS011;38637;49.984;20.426;2022-12-10T04:53:48;19.07;;;15.10;;
52744;SDS011;38637;49.984;20.426;2022-12-10T04:56:14;17.67;;;14.53;;
52744;SDS011;38637;49.984;20.426;2022-12-10T04:58:39;17.23;;;14.33;;
52744;SDS011;38637;49.984;20.426;2022-12-10T05:01:05;19.70;;;16.33;;
52744;SDS011;38637;49.984;20.426;2022-12-10T05:03:33;17.05;;;15.15;;
52744;SDS011;38637;49.984;20.426;2022-12-10T05:06:02;21.13;;;16.38;;
52744;SDS011;38637;49.984;20.426;2022-12-10T05:08:29;24.58;;;15.98;;
52744;SDS011;38637;49.984;20.426;2022-12-10T05:10:55;22.83;;;17.23;;
52744;SDS011;38637;49.984;20.426;2022-12-10T05:13:26;22.75;;;17.52;;
52744;SDS011;38637;49.984;20.426;2022-12-10T05:15:51;23.10;;;16.73;;
52744;SDS011;38637;49.984;20.426;2022-12-10T05:18:16;21.53;;;18.40;;
52744;SDS011;38637;49.984;20.426;2022-12-10T05:20:42;20.00;;;16.93;;
52744;SDS011;38637;49.984;20.426;2022-12-10T05:23:07;20.90;;;16.63;;
52744;SDS011;38637;49.984;20.426;2022-12-10T05:25:57;19.13;;;15.50;;
52744;SDS011;38637;49.984;20.426;2022-12-10T05:28:26;20.13;;;15.80;;
52744;SDS011;38637;49.984;20.426;2022-12-10T05:30:52;19.03;;;15.97;;
52744;SDS011;38637;49.984;20.426;2022-12-10T05:33:17;19.63;;;16.73;;
52744;SDS011;38637;49.984;20.426;2022-12-10T05:35:43;18.57;;;16.60;;
52744;SDS011;38637;49.984;20.426;2022-12-10T05:38:08;21.23;;;15.77;;
52744;SDS011;38637;49.984;20.426;2022-12-10T05:40:38;22.63;;;18.83;;
52744;SDS011;38637;49.984;20.426;2022-12-10T05:43:03;21.70;;;18.27;;
52744;SDS011;38637;49.984;20.426;2022-12-10T05:45:29;19.10;;;17.00;;
52744;SDS011;38637;49.984;20.426;2022-12-10T05:47:57;22.98;;;18.88;;
52744;SDS011;38637;49.984;20.426;2022-12-10T05:50:23;24.57;;;20.43;;
52744;SDS011;38637;49.984;20.426;2022-12-10T05:52:49;26.07;;;22.43;;
52744;SDS011;38637;49.984;20.426;2022-12-10T05:55:15;24.40;;;20.70;;
52744;SDS011;38637;49.984;20.426;2022-12-10T05:57:41;21.43;;;18.60;;
52744;SDS011;38637;49.984;20.426;2022-12-10T06:00:06;24.83;;;19.77;;
52744;SDS011;38637;49.984;20.426;2022-12-10T06:02:33;20.27;;;16.80;;
52744;SDS011;38637;49.984;20.426;2022-12-10T06:04:58;24.10;;;18.80;;
52744;SDS011;38637;49.984;20.426;2022-12-10T06:07:23;24.20;;;20.27;;
52744;SDS011;38637;49.984;20.426;2022-12-10T06:09:49;20.63;;;18.23;;
52744;SDS011;38637;49.984;20.426;2022-12-10T06:12:14;16.67;;;14.87;;
52744;SDS011;38637;49.984;20.426;2022-12-10T06:14:39;18.63;;;14.07;;
52744;SDS011;38637;49.984;20.426;2022-12-10T06:17:05;17.60;;;13.67;;
52744;SDS011;38637;49.984;20.426;2022-12-10T06:19:30;16.13;;;13.57;;
52744;SDS011;38637;49.984;20.426;2022-12-10T06:21:55;16.53;;;13.43;;
52744;SDS011;38637;49.984;20.426;2022-12-10T06:24:20;17.93;;;13.90;;
52744;SDS011;38637;49.984;20.426;2022-12-10T06:26:46;14.77;;;13.13;;
52744;SDS011;38637;49.984;20.426;2022-12-10T06:29:11;15.60;;;13.17;;
52744;SDS011;38637;49.984;20.426;2022-12-10T06:31:36;16.37;;;14.10;;
52744;SDS011;38637;49.984;20.426;2022-12-10T06:34:01;16.03;;;13.83;;
52744;SDS011;38637;49.984;20.426;2022-12-10T06:36:27;16.07;;;12.87;;
52744;SDS011;38637;49.984;20.426;2022-12-10T06:38:52;17.03;;;12.93;;
52744;SDS011;38637;49.984;20.426;2022-12-10T06:41:18;13.50;;;12.07;;
52744;SDS011;38637;49.984;20.426;2022-12-10T06:43:45;15.75;;;12.75;;
52744;SDS011;38637;49.984;20.426;2022-12-10T06:46:12;15.03;;;12.43;;
52744;SDS011;38637;49.984;20.426;2022-12-10T06:48:39;15.30;;;13.23;;
52744;SDS011;38637;49.984;20.426;2022-12-10T06:51:05;34.23;;;26.07;;
52744;SDS011;38637;49.984;20.426;2022-12-10T06:53:31;41.23;;;30.30;;
52744;SDS011;38637;49.984;20.426;2022-12-10T06:55:58;25.48;;;17.85;;
52744;SDS011;38637;49.984;20.426;2022-12-10T06:58:24;18.38;;;14.75;;
52744;SDS011;38637;49.984;20.426;2022-12-10T07:00:52;17.70;;;14.77;;
52744;SDS011;38637;49.984;20.426;2022-12-10T07:03:17;22.27;;;17.43;;
52744;SDS011;38637;49.984;20.426;2022-12-10T07:05:43;24.80;;;18.40;;
52744;SDS011;38637;49.984;20.426;2022-12-10T07:08:08;24.60;;;19.77;;
52744;SDS011;38637;49.984;20.426;2022-12-10T07:10:33;28.20;;;22.40;;
52744;SDS011;38637;49.984;20.426;2022-12-10T07:12:58;30.17;;;22.20;;
52744;SDS011;38637;49.984;20.426;2022-12-10T07:15:25;27.15;;;21.77;;
52744;SDS011;38637;49.984;20.426;2022-12-10T07:17:52;26.20;;;20.73;;
52744;SDS011;38637;49.984;20.426;2022-12-10T07:20:17;31.13;;;24.00;;
52744;SDS011;38637;49.984;20.426;2022-12-10T07:22:43;42.93;;;30.40;;
52744;SDS011;38637;49.984;20.426;2022-12-10T07:25:08;30.00;;;23.27;;
52744;SDS011;38637;49.984;20.426;2022-12-10T07:27:34;29.50;;;24.00;;
52744;SDS011;38637;49.984;20.426;2022-12-10T07:29:59;29.77;;;25.20;;
52744;SDS011;38637;49.984;20.426;2022-12-10T07:32:26;23.67;;;19.43;;
52744;SDS011;38637;49.984;20.426;2022-12-10T07:34:52;24.17;;;18.38;;
52744;SDS011;38637;49.984;20.426;2022-12-10T07:37:17;23.80;;;20.13;;
52744;SDS011;38637;49.984;20.426;2022-12-10T07:39:42;28.37;;;21.40;;
52744;SDS011;38637;49.984;20.426;2022-12-10T07:42:08;33.00;;;22.93;;
52744;SDS011;38637;49.984;20.426;2022-12-10T07:44:33;23.97;;;18.87;;
52744;SDS011;38637;49.984;20.426;2022-12-10T07:46:59;23.97;;;18.23;;
52744;SDS011;38637;49.984;20.426;2022-12-10T07:49:24;24.60;;;18.83;;
52744;SDS011;38637;49.984;20.426;2022-12-10T07:51:49;26.13;;;19.50;;
52744;SDS011;38637;49.984;20.426;2022-12-10T07:54:16;26.07;;;18.50;;
52744;SDS011;38637;49.984;20.426;2022-12-10T07:59:07;23.73;;;18.58;;
52744;SDS011;38637;49.984;20.426;2022-12-10T08:01:33;27.83;;;18.50;;
52744;SDS011;38637;49.984;20.426;2022-12-10T08:03:58;28.23;;;20.73;;
52744;SDS011;38637;49.984;20.426;2022-12-10T08:06:24;27.63;;;22.63;;
52744;SDS011;38637;49.984;20.426;2022-12-10T08:08:51;34.58;;;23.05;;
52744;SDS011;38637;49.984;20.426;2022-12-10T08:11:17;34.35;;;25.20;;
52744;SDS011;38637;49.984;20.426;2022-12-10T08:13:44;30.77;;;23.50;;
52744;SDS011;38637;49.984;20.426;2022-12-10T08:18:38;37.30;;;27.65;;
52744;SDS011;38637;49.984;20.426;2022-12-10T08:21:05;31.17;;;25.13;;
52744;SDS011;38637;49.984;20.426;2022-12-10T08:23:31;30.75;;;23.00;;
52744;SDS011;38637;49.984;20.426;2022-12-10T08:26:01;31.50;;;23.52;;
52744;SDS011;38637;49.984;20.426;2022-12-10T08:28:28;27.70;;;22.13;;
52744;SDS011;38637;49.984;20.426;2022-12-10T08:30:53;25.73;;;20.50;;
52744;SDS011;38637;49.984;20.426;2022-12-10T08:33:18;29.43;;;21.53;;
52744;SDS011;38637;49.984;20.426;2022-12-10T08:35:43;28.80;;;20.67;;
52744;SDS011;38637;49.984;20.426;2022-12-10T08:38:09;29.37;;;20.93;;
52744;SDS011;38637;49.984;20.426;2022-12-10T08:40:37;22.07;;;18.60;;
52744;SDS011;38637;49.984;20.426;2022-12-10T08:43:03;21.33;;;16.77;;
52744;SDS011;38637;49.984;20.426;2022-12-10T08:45:29;21.60;;;17.13;;
52744;SDS011;38637;49.984;20.426;2022-12-10T08:47:54;22.17;;;17.13;;
52744;SDS011;38637;49.984;20.426;2022-12-10T08:50:19;20.33;;;16.27;;
52744;SDS011;38637;49.984;20.426;2022-12-10T08:52:45;19.33;;;16.23;;
52744;SDS011;38637;49.984;20.426;2022-12-10T08:55:10;20.03;;;16.97;;
52744;SDS011;38637;49.984;20.426;2022-12-10T08:57:35;20.57;;;16.93;;
52744;SDS011;38637;49.984;20.426;2022-12-10T09:00:01;20.30;;;17.07;;
52744;SDS011;38637;49.984;20.426;2022-12-10T09:02:27;20.63;;;16.42;;
52744;SDS011;38637;49.984;20.426;2022-12-10T09:04:52;19.73;;;16.43;;
52744;SDS011;38637;49.984;20.426;2022-12-10T09:07:18;29.33;;;19.40;;
52744;SDS011;38637;49.984;20.426;2022-12-10T09:09:43;21.13;;;17.57;;
52744;SDS011;38637;49.984;20.426;2022-12-10T09:12:08;23.07;;;19.33;;
52744;SDS011;38637;49.984;20.426;2022-12-10T09:14:34;22.43;;;18.17;;
52744;SDS011;38637;49.984;20.426;2022-12-10T09:17:02;24.07;;;19.37;;
52744;SDS011;38637;49.984;20.426;2022-12-10T09:19:28;26.38;;;20.52;;
52744;SDS011;38637;49.984;20.426;2022-12-10T09:21:53;28.67;;;20.90;;
52744;SDS011;38637;49.984;20.426;2022-12-10T09:24:19;23.83;;;18.47;;
52744;SDS011;38637;49.984;20.426;2022-12-10T09:26:44;24.70;;;19.17;;
52744;SDS011;38637;49.984;20.426;2022-12-10T09:29:09;25.07;;;18.77;;
52744;SDS011;38637;49.984;20.426;2022-12-10T09:31:35;28.07;;;19.90;;
52744;SDS011;38637;49.984;20.426;2022-12-10T09:34:00;22.20;;;18.23;;
52744;SDS011;38637;49.984;20.426;2022-12-10T09:36:25;24.30;;;18.80;;
52744;SDS011;38637;49.984;20.426;2022-12-10T09:38:51;24.57;;;18.67;;
52744;SDS011;38637;49.984;20.426;2022-12-10T09:41:38;23.83;;;19.85;;
52744;SDS011;38637;49.984;20.426;2022-12-10T09:46:52;28.40;;;20.10;;
52744;SDS011;38637;49.984;20.426;2022-12-10T09:52:23;27.08;;;21.92;;
52744;SDS011;38637;49.984;20.426;2022-12-10T09:54:52;32.85;;;23.40;;
52744;SDS011;38637;49.984;20.426;2022-12-10T09:57:26;26.63;;;20.90;;
52744;SDS011;38637;49.984;20.426;2022-12-10T09:59:52;27.10;;;21.48;;
52744;SDS011;38637;49.984;20.426;2022-12-10T10:05:19;34.25;;;23.60;;
52744;SDS011;38637;49.984;20.426;2022-12-10T10:07:46;27.85;;;21.02;;
52744;SDS011;38637;49.984;20.426;2022-12-10T10:10:23;31.08;;;22.45;;
52744;SDS011;38637;49.984;20.426;2022-12-10T10:12:54;27.77;;;20.27;;
52744;SDS011;38637;49.984;20.426;2022-12-10T10:15:26;28.17;;;20.60;;
52744;SDS011;38637;49.984;20.426;2022-12-10T10:17:58;34.47;;;23.87;;
52744;SDS011;38637;49.984;20.426;2022-12-10T10:20:27;27.63;;;20.65;;
52744;SDS011;38637;49.984;20.426;2022-12-10T10:22:53;26.20;;;21.70;;
52744;SDS011;38637;49.984;20.426;2022-12-10T10:25:22;34.10;;;25.05;;
52744;SDS011;38637;49.984;20.426;2022-12-10T10:27:48;40.67;;;29.27;;
52744;SDS011;38637;49.984;20.426;2022-12-10T10:30:14;37.60;;;28.40;;
52744;SDS011;38637;49.984;20.426;2022-12-10T10:32:46;36.33;;;26.88;;
52744;SDS011;38637;49.984;20.426;2022-12-10T10:35:25;27.90;;;22.17;;
52744;SDS011;38637;49.984;20.426;2022-12-10T10:38:08;26.83;;;21.30;;
52744;SDS011;38637;49.984;20.426;2022-12-10T10:40:42;28.88;;;22.02;;
52744;SDS011;38637;49.984;20.426;2022-12-10T10:43:16;27.33;;;20.60;;
52744;SDS011;38637;49.984;20.426;2022-12-10T10:45:50;27.58;;;21.48;;
52744;SDS011;38637;49.984;20.426;2022-12-10T10:48:20;44.67;;;33.53;;
52744;SDS011;38637;49.984;20.426;2022-12-10T10:51:35;33.17;;;25.67;;
52744;SDS011;38637;49.984;20.426;2022-12-10T10:58:56;32.28;;;24.52;;
52744;SDS011;38637;49.984;20.426;2022-12-10T11:01:26;25.58;;;20.63;;
52744;SDS011;38637;49.984;20.426;2022-12-10T11:04:08;32.78;;;25.17;;
52744;SDS011;38637;49.984;20.426;2022-12-10T11:06:33;33.07;;;25.83;;
52744;SDS011;38637;49.984;20.426;2022-12-10T11:08:59;35.90;;;27.53;;
52744;SDS011;38637;49.984;20.426;2022-12-10T11:11:35;32.30;;;26.40;;
52744;SDS011;38637;49.984;20.426;2022-12-10T11:14:15;37.38;;;28.42;;
52744;SDS011;38637;49.984;20.426;2022-12-10T11:16:59;31.38;;;25.00;;
52744;SDS011;38637;49.984;20.426;2022-12-10T11:19:27;33.38;;;26.23;;
52744;SDS011;38637;49.984;20.426;2022-12-10T11:21:53;25.43;;;22.00;;
52744;SDS011;38637;49.984;20.426;2022-12-10T11:24:19;28.17;;;22.77;;
52744;SDS011;38637;49.984;20.426;2022-12-10T11:27:03;29.48;;;23.75;;
52744;SDS011;38637;49.984;20.426;2022-12-10T11:29:46;28.65;;;22.45;;
52744;SDS011;38637;49.984;20.426;2022-12-10T11:32:21;25.35;;;20.70;;
52744;SDS011;38637;49.984;20.426;2022-12-10T11:40:22;22.52;;;19.20;;
52744;SDS011;38637;49.984;20.426;2022-12-10T11:43:07;24.02;;;20.48;;
52744;SDS011;38637;49.984;20.426;2022-12-10T11:48:46;28.90;;;23.73;;
52744;SDS011;38637;49.984;20.426;2022-12-10T11:51:19;29.52;;;22.83;;
52744;SDS011;38637;49.984;20.426;2022-12-10T12:00:05;34.75;;;26.10;;
52744;SDS011;38637;49.984;20.426;2022-12-10T12:08:25;35.85;;;25.58;;
52744;SDS011;38637;49.984;20.426;2022-12-10T12:11:04;34.38;;;25.92;;
52744;SDS011;38637;49.984;20.426;2022-12-10T12:13:50;35.92;;;27.80;;
52744;SDS011;38637;49.984;20.426;2022-12-10T12:16:44;42.92;;;31.95;;
52744;SDS011;38637;49.984;20.426;2022-12-10T12:19:43;44.45;;;34.50;;
52744;SDS011;38637;49.984;20.426;2022-12-10T12:22:23;45.40;;;34.13;;
52744;SDS011;38637;49.984;20.426;2022-12-10T12:24:52;40.65;;;29.67;;
52744;SDS011;38637;49.984;20.426;2022-12-10T12:30:02;49.17;;;37.63;;
52744;SDS011;38637;49.984;20.426;2022-12-10T12:35:21;54.95;;;39.70;;
52744;SDS011;38637;49.984;20.426;2022-12-10T12:38:30;42.28;;;28.65;;
52744;SDS011;38637;49.984;20.426;2022-12-10T12:44:12;54.08;;;40.38;;
52744;SDS011;38637;49.984;20.426;2022-12-10T12:46:44;46.47;;;31.67;;
52744;SDS011;38637;49.984;20.426;2022-12-10T12:51:54;41.90;;;30.42;;
52744;SDS011;38637;49.984;20.426;2022-12-10T12:54:30;44.47;;;32.22;;
52744;SDS011;38637;49.984;20.426;2022-12-10T12:57:06;44.00;;;33.33;;
52744;SDS011;38637;49.984;20.426;2022-12-10T13:10:57;52.80;;;40.00;;
52744;SDS011;38637;49.984;20.426;2022-12-10T13:24:21;33.92;;;26.88;;
52744;SDS011;38637;49.984;20.426;2022-12-10T13:34:40;37.33;;;28.30;;
52744;SDS011;38637;49.984;20.426;2022-12-10T13:46:19;36.55;;;28.90;;
52744;SDS011;38637;49.984;20.426;2022-12-10T13:48:46;34.85;;;27.63;;
52744;SDS011;38637;49.984;20.426;2022-12-10T13:51:20;35.70;;;26.37;;
52744;SDS011;38637;49.984;20.426;2022-12-10T13:56:28;37.00;;;28.80;;
52744;SDS011;38637;49.984;20.426;2022-12-10T14:01:54;50.80;;;36.88;;
52744;SDS011;38637;49.984;20.426;2022-12-10T14:04:34;49.65;;;34.40;;
52744;SDS011;38637;49.984;20.426;2022-12-10T14:07:15;45.42;;;33.55;;
52744;SDS011;38637;49.984;20.426;2022-12-10T14:09:45;49.45;;;35.95;;
52744;SDS011;38637;49.984;20.426;2022-12-10T14:12:26;52.10;;;36.67;;
52744;SDS011;38637;49.984;20.426;2022-12-10T14:15:16;54.28;;;40.13;;
52744;SDS011;38637;49.984;20.426;2022-12-10T14:17:46;61.65;;;44.50;;
52744;SDS011;38637;49.984;20.426;2022-12-10T14:20:14;58.28;;;43.45;;
52744;SDS011;38637;49.984;20.426;2022-12-10T14:22:44;58.05;;;38.03;;
52744;SDS011;38637;49.984;20.426;2022-12-10T14:25:12;59.45;;;41.45;;
52744;SDS011;38637;49.984;20.426;2022-12-10T14:27:39;64.07;;;41.67;;
52744;SDS011;38637;49.984;20.426;2022-12-10T14:30:27;57.20;;;37.35;;
52744;SDS011;38637;49.984;20.426;2022-12-10T14:32:56;65.45;;;41.20;;
52744;SDS011;38637;49.984;20.426;2022-12-10T14:35:25;63.90;;;39.92;;
52744;SDS011;38637;49.984;20.426;2022-12-10T14:37:53;67.00;;;38.75;;
52744;SDS011;38637;49.984;20.426;2022-12-10T14:40:29;65.10;;;42.95;;
52744;SDS011;38637;49.984;20.426;2022-12-10T14:43:04;77.22;;;42.50;;
52744;SDS011;38637;49.984;20.426;2022-12-10T14:45:37;64.20;;;38.53;;
52744;SDS011;38637;49.984;20.426;2022-12-10T14:48:09;60.58;;;35.85;;
52744;SDS011;38637;49.984;20.426;2022-12-10T14:50:37;63.15;;;37.47;;
52744;SDS011;38637;49.984;20.426;2022-12-10T14:55:30;64.05;;;40.03;;
52744;SDS011;38637;49.984;20.426;2022-12-10T14:58:00;73.22;;;48.75;;
52744;SDS011;38637;49.984;20.426;2022-12-10T15:00:28;81.60;;;49.80;;
52744;SDS011;38637;49.984;20.426;2022-12-10T15:02:55;59.73;;;37.07;;
52744;SDS011;38637;49.984;20.426;2022-12-10T15:05:24;62.17;;;39.10;;
52744;SDS011;38637;49.984;20.426;2022-12-10T15:07:55;69.63;;;41.50;;
52744;SDS011;38637;49.984;20.426;2022-12-10T15:10:34;58.40;;;35.80;;
52744;SDS011;38637;49.984;20.426;2022-12-10T15:13:02;78.22;;;46.28;;
52744;SDS011;38637;49.984;20.426;2022-12-10T15:15:35;56.67;;;33.03;;
52744;SDS011;38637;49.984;20.426;2022-12-10T15:20:38;87.85;;;45.92;;
52744;SDS011;38637;49.984;20.426;2022-12-10T15:25:46;84.50;;;37.77;;
52744;SDS011;38637;49.984;20.426;2022-12-10T15:28:22;82.38;;;40.97;;
52744;SDS011;38637;49.984;20.426;2022-12-10T15:30:50;64.70;;;34.97;;
52744;SDS011;38637;49.984;20.426;2022-12-10T15:33:34;67.80;;;35.20;;
52744;SDS011;38637;49.984;20.426;2022-12-10T15:36:02;77.28;;;41.15;;
52744;SDS011;38637;49.984;20.426;2022-12-10T15:38:28;84.37;;;38.33;;
52744;SDS011;38637;49.984;20.426;2022-12-10T15:40:57;75.00;;;39.27;;
52744;SDS011;38637;49.984;20.426;2022-12-10T15:43:28;73.57;;;37.45;;
52744;SDS011;38637;49.984;20.426;2022-12-10T15:45:55;80.00;;;39.00;;
52744;SDS011;38637;49.984;20.426;2022-12-10T15:48:21;113.85;;;44.25;;
52744;SDS011;38637;49.984;20.426;2022-12-10T15:50:46;102.23;;;40.57;;
52744;SDS011;38637;49.984;20.426;2022-12-10T15:55:41;95.07;;;41.63;;
52744;SDS011;38637;49.984;20.426;2022-12-10T15:58:12;127.33;;;48.63;;
52744;SDS011;38637;49.984;20.426;2022-12-10T16:00:38;112.45;;;42.95;;
52744;SDS011;38637;49.984;20.426;2022-12-10T16:03:08;144.23;;;46.47;;
52744;SDS011;38637;49.984;20.426;2022-12-10T16:05:37;131.07;;;52.10;;
52744;SDS011;38637;49.984;20.426;2022-12-10T16:10:50;142.27;;;50.13;;
52744;SDS011;38637;49.984;20.426;2022-12-10T16:15:58;98.20;;;42.63;;
52744;SDS011;38637;49.984;20.426;2022-12-10T16:18:29;128.02;;;50.92;;
52744;SDS011;38637;49.984;20.426;2022-12-10T16:20:55;109.37;;;42.97;;
52744;SDS011;38637;49.984;20.426;2022-12-10T16:23:26;158.73;;;54.10;;
52744;SDS011;38637;49.984;20.426;2022-12-10T16:25:51;153.33;;;53.03;;
52744;SDS011;38637;49.984;20.426;2022-12-10T16:28:17;147.97;;;50.60;;
52744;SDS011;38637;49.984;20.426;2022-12-10T16:30:48;178.52;;;50.80;;